createdAt,value
2018-04-16T00:00:21.671Z,2.72
2018-04-16T00:02:49.169Z,2.97
2018-04-16T00:05:16.659Z,3.28
2018-04-16T00:07:44.200Z,3.00
2018-04-16T00:10:13.365Z,2.93
2018-04-16T00:12:41.623Z,2.95
2018-04-16T00:15:09.283Z,2.90
2018-04-16T00:17:36.811Z,2.75
2018-04-16T00:20:04.295Z,2.90
2018-04-16T00:22:31.782Z,2.40
2018-04-16T00:25:11.509Z,2.80
2018-04-16T00:27:56.148Z,2.65
2018-04-16T00:30:23.708Z,2.67
2018-04-16T00:32:56.786Z,2.83
2018-04-16T00:35:29.843Z,2.87
2018-04-16T00:38:04.715Z,2.80
2018-04-16T00:40:37.878Z,2.75
2018-04-16T00:43:11.094Z,2.50
2018-04-16T00:45:45.056Z,2.55
2018-04-16T00:48:18.074Z,2.67
2018-04-16T00:50:51.242Z,2.65
2018-04-16T00:53:24.283Z,2.75
2018-04-16T00:59:11.240Z,2.62
2018-04-16T01:01:44.429Z,2.80
2018-04-16T01:04:17.809Z,2.83
2018-04-16T01:06:50.959Z,2.72
2018-04-16T01:09:24.161Z,2.67
2018-04-16T01:11:57.216Z,2.75
2018-04-16T01:14:30.385Z,2.70
2018-04-16T01:17:03.488Z,2.53
2018-04-16T01:19:36.539Z,2.73
2018-04-16T01:22:09.725Z,2.80
2018-04-16T01:27:47.682Z,2.57
2018-04-16T01:33:36.212Z,2.65
2018-04-16T01:36:09.538Z,2.50
2018-04-16T01:38:42.760Z,2.58
2018-04-16T01:41:16.788Z,2.50
2018-04-16T01:43:52.635Z,2.62
2018-04-16T01:52:29.396Z,2.60
2018-04-16T01:55:11.817Z,2.60
2018-04-16T01:57:44.936Z,2.67
2018-04-16T02:00:18.873Z,2.40
2018-04-16T02:09:03.568Z,2.90
2018-04-16T02:14:35.316Z,2.75
2018-04-16T02:17:08.653Z,2.70
2018-04-16T02:19:41.786Z,2.60
2018-04-16T02:22:15.145Z,2.70
2018-04-16T02:24:48.342Z,2.90
2018-04-16T02:27:34.902Z,2.80
2018-04-16T02:30:08.166Z,2.80
2018-04-16T02:35:22.737Z,3.17
2018-04-16T02:37:56.021Z,2.80
2018-04-16T02:40:29.197Z,2.70
2018-04-16T02:43:02.408Z,2.70
2018-04-16T02:48:34.467Z,2.85
2018-04-16T02:51:07.827Z,3.12
2018-04-16T02:53:41.042Z,3.12
2018-04-16T02:56:14.303Z,3.20
2018-04-16T02:58:48.371Z,2.85
2018-04-16T03:01:32.650Z,2.80
2018-04-16T03:04:05.789Z,2.70
2018-04-16T03:06:39.636Z,2.80
2018-04-16T03:09:12.970Z,2.75
2018-04-16T03:11:46.047Z,2.55
2018-04-16T03:14:19.287Z,2.47
2018-04-16T03:16:52.493Z,2.62
2018-04-16T03:19:25.679Z,2.60
2018-04-16T03:22:00.593Z,2.60
2018-04-16T03:24:33.662Z,2.23
2018-04-16T03:27:06.862Z,2.60
2018-04-16T03:29:40.068Z,2.72
2018-04-16T03:35:21.144Z,2.60
2018-04-16T03:37:54.279Z,2.50
2018-04-16T03:40:27.515Z,2.70
2018-04-16T03:43:02.366Z,2.70
2018-04-16T03:45:35.541Z,2.58
2018-04-16T03:48:08.851Z,2.83
2018-04-16T03:50:42.031Z,3.00
2018-04-16T03:53:15.218Z,3.03
2018-04-16T03:55:48.390Z,2.53
2018-04-16T03:58:15.887Z,2.62
2018-04-16T04:00:43.358Z,2.40
2018-04-16T04:03:10.840Z,2.50
2018-04-16T04:05:38.293Z,2.20
2018-04-16T04:08:05.957Z,2.40
2018-04-16T04:10:33.428Z,2.35
2018-04-16T04:13:00.915Z,2.40
2018-04-16T04:15:28.374Z,2.50
2018-04-16T04:18:01.042Z,2.53
2018-04-16T04:20:29.347Z,2.47
2018-04-16T04:23:08.814Z,2.60
2018-04-16T04:25:48.134Z,2.42
2018-04-16T04:28:28.397Z,2.62
2018-04-16T04:30:56.626Z,2.50
2018-04-16T04:33:24.270Z,2.53
2018-04-16T04:35:51.743Z,2.20
2018-04-16T04:38:20.524Z,2.50
2018-04-16T04:40:48.771Z,2.70
2018-04-16T04:43:16.246Z,2.70
2018-04-16T04:45:43.757Z,2.90
2018-04-16T04:48:13.955Z,2.95
2018-04-16T04:50:41.411Z,2.80
2018-04-16T04:53:08.906Z,2.70
2018-04-16T04:55:36.452Z,2.72
2018-04-16T04:58:03.929Z,2.87
2018-04-16T05:00:31.428Z,3.00
2018-04-16T05:02:59.715Z,2.75
2018-04-16T05:05:28.092Z,2.70
2018-04-16T05:07:55.641Z,2.70
2018-04-16T05:10:23.157Z,2.67
2018-04-16T05:12:51.421Z,2.90
2018-04-16T05:15:25.580Z,2.80
2018-04-16T05:17:53.860Z,2.90
2018-04-16T05:20:22.300Z,3.45
2018-04-16T05:22:49.855Z,3.80
2018-04-16T05:25:17.341Z,3.70
2018-04-16T05:27:55.139Z,3.50
2018-04-16T05:30:25.007Z,3.30
2018-04-16T05:32:52.976Z,3.55
2018-04-16T05:35:25.900Z,3.50
2018-04-16T05:37:53.826Z,3.30
2018-04-16T05:40:21.340Z,3.72
2018-04-16T05:42:49.451Z,3.10
2018-04-16T05:45:18.610Z,3.70
2018-04-16T05:47:46.841Z,3.60
2018-04-16T05:50:22.944Z,4.28
2018-04-16T05:52:51.230Z,3.42
2018-04-16T05:55:20.496Z,3.60
2018-04-16T05:57:51.133Z,3.33
2018-04-16T06:00:22.948Z,3.42
2018-04-16T06:02:50.440Z,3.20
2018-04-16T06:05:19.983Z,3.03
2018-04-16T06:07:47.635Z,3.08
2018-04-16T06:10:25.888Z,3.10
2018-04-16T06:12:53.467Z,3.17
2018-04-16T06:15:27.330Z,2.92
2018-04-16T06:17:54.976Z,3.03
2018-04-16T06:20:22.582Z,3.00
2018-04-16T06:22:50.321Z,3.08
2018-04-16T06:25:22.697Z,3.00
2018-04-16T06:27:50.224Z,3.00
2018-04-16T06:30:17.855Z,3.20
2018-04-16T06:32:47.721Z,3.20
2018-04-16T06:35:16.000Z,2.97
2018-04-16T06:38:05.424Z,3.10
2018-04-16T06:40:33.139Z,3.10
2018-04-16T06:43:02.492Z,3.00
2018-04-16T06:45:42.238Z,3.15
2018-04-16T06:48:09.848Z,2.97
2018-04-16T06:50:38.107Z,3.12
2018-04-16T06:53:05.610Z,3.50
2018-04-16T06:55:33.103Z,3.50
2018-04-16T06:58:00.625Z,4.00
2018-04-16T07:00:28.156Z,4.07
2018-04-16T07:02:55.692Z,3.97
2018-04-16T07:05:24.009Z,3.87
2018-04-16T07:07:51.487Z,3.80
2018-04-16T07:10:19.011Z,3.97
2018-04-16T07:12:48.569Z,3.50
2018-04-16T07:15:16.199Z,3.58
2018-04-16T07:17:44.476Z,3.30
2018-04-16T07:20:22.324Z,3.50
2018-04-16T07:22:50.646Z,3.30
2018-04-16T07:25:18.137Z,3.10
2018-04-16T07:27:45.922Z,2.70
2018-04-16T07:30:13.514Z,3.00
2018-04-16T07:32:41.010Z,3.00
2018-04-16T07:35:19.750Z,3.00
2018-04-16T07:37:47.251Z,3.22
2018-04-16T07:40:18.227Z,2.85
2018-04-16T07:42:52.456Z,3.53
2018-04-16T07:45:28.223Z,3.05
2018-04-16T07:47:55.726Z,3.83
2018-04-16T07:50:48.864Z,4.10
2018-04-16T07:53:16.338Z,4.25
2018-04-16T07:55:43.820Z,4.60
2018-04-16T07:58:12.053Z,4.18
2018-04-16T08:00:39.546Z,3.87
2018-04-16T08:03:07.044Z,3.10
2018-04-16T08:05:36.146Z,2.50
2018-04-16T08:08:04.470Z,2.70
2018-04-16T08:10:31.937Z,3.30
2018-04-16T08:12:59.453Z,2.55
2018-04-16T08:15:27.758Z,2.50
2018-04-16T08:17:56.025Z,2.30
2018-04-16T08:20:23.514Z,2.43
2018-04-16T08:22:51.147Z,2.20
2018-04-16T08:25:18.615Z,2.30
2018-04-16T08:27:46.102Z,2.40
2018-04-16T08:30:13.567Z,2.30
2018-04-16T08:32:41.162Z,2.30
2018-04-16T08:35:08.639Z,2.35
2018-04-16T08:37:36.867Z,2.20
2018-04-16T08:40:04.577Z,2.30
2018-04-16T08:42:32.069Z,2.60
2018-04-16T08:45:00.389Z,2.90
2018-04-16T08:47:27.854Z,2.67
2018-04-16T08:49:55.350Z,2.60
2018-04-16T08:52:23.007Z,2.60
2018-04-16T08:54:50.478Z,2.20
2018-04-16T08:57:17.958Z,2.30
2018-04-16T08:59:45.649Z,2.10
2018-04-16T09:02:13.892Z,1.90
2018-04-16T09:04:42.118Z,2.00
2018-04-16T09:07:09.600Z,1.75
2018-04-16T09:09:37.075Z,1.90
2018-04-16T09:12:04.565Z,1.62
2018-04-16T09:14:35.718Z,1.37
2018-04-16T09:17:05.378Z,1.10
2018-04-16T09:19:37.420Z,1.48
2018-04-16T09:22:04.944Z,1.50
2018-04-16T09:24:34.072Z,1.10
2018-04-16T09:27:04.719Z,1.40
2018-04-16T09:29:32.352Z,1.40
2018-04-16T09:31:59.865Z,1.57
2018-04-16T09:34:28.237Z,1.40
2018-04-16T09:36:55.730Z,1.67
2018-04-16T09:39:23.218Z,1.50
2018-04-16T09:41:51.483Z,1.40
2018-04-16T09:44:19.074Z,1.45
2018-04-16T09:46:47.336Z,1.45
2018-04-16T09:49:14.820Z,1.40
2018-04-16T09:51:42.311Z,1.62
2018-04-16T09:54:10.645Z,1.50
2018-04-16T09:56:38.162Z,1.70
2018-04-16T09:59:06.483Z,1.60
2018-04-16T10:01:44.748Z,1.70
2018-04-16T10:04:12.215Z,1.60
2018-04-16T10:06:39.710Z,1.95
2018-04-16T10:09:07.989Z,1.83
2018-04-16T10:11:35.562Z,1.92
2018-04-16T10:14:03.034Z,2.00
2018-04-16T10:16:31.286Z,2.00
2018-04-16T10:18:58.734Z,1.80
2018-04-16T10:21:26.218Z,1.50
2018-04-16T10:23:53.686Z,2.30
2018-04-16T10:26:32.632Z,2.20
2018-04-16T10:29:00.147Z,2.10
2018-04-16T10:31:28.406Z,2.50
2018-04-16T10:33:55.896Z,2.60
2018-04-16T10:36:24.136Z,2.75
2018-04-16T10:38:51.615Z,2.77
2018-04-16T10:41:19.132Z,2.53
2018-04-16T10:43:47.407Z,2.60
2018-04-16T10:46:14.886Z,2.37
2018-04-16T10:48:43.110Z,2.60
2018-04-16T10:51:11.501Z,2.20
2018-04-16T10:53:38.962Z,2.50
2018-04-16T10:59:07.229Z,2.53
2018-04-16T11:01:34.712Z,2.40
2018-04-16T11:04:06.010Z,2.72
2018-04-16T11:06:33.458Z,2.60
2018-04-16T11:09:01.730Z,2.55
2018-04-16T11:11:30.014Z,2.45
2018-04-16T11:13:57.494Z,2.70
2018-04-16T11:16:25.725Z,2.40
2018-04-16T11:18:53.223Z,2.50
2018-04-16T11:21:20.727Z,2.40
2018-04-16T11:23:48.244Z,1.90
2018-04-16T11:26:32.901Z,2.22
2018-04-16T11:29:00.359Z,2.40
2018-04-16T11:31:28.746Z,2.15
2018-04-16T11:33:56.227Z,2.30
2018-04-16T11:36:23.735Z,2.20
2018-04-16T11:38:51.194Z,2.12
2018-04-16T11:41:21.706Z,2.00
2018-04-16T11:43:49.314Z,2.10
2018-04-16T11:46:16.924Z,2.10
2018-04-16T11:48:45.163Z,2.50
2018-04-16T11:51:12.670Z,2.30
2018-04-16T11:53:40.263Z,2.12
2018-04-16T11:56:07.786Z,2.28
2018-04-16T11:58:35.312Z,2.20
2018-04-16T12:01:03.574Z,2.10
2018-04-16T12:03:31.091Z,1.92
2018-04-16T12:05:58.707Z,1.90
2018-04-16T12:08:26.171Z,1.70
2018-04-16T12:10:53.733Z,1.90
2018-04-16T12:13:21.208Z,1.80
2018-04-16T12:15:48.671Z,1.50
2018-04-16T12:18:16.174Z,1.90
2018-04-16T12:20:43.721Z,1.70
2018-04-16T12:23:11.324Z,1.85
2018-04-16T12:25:38.933Z,1.90
2018-04-16T12:28:06.442Z,1.93
2018-04-16T12:30:34.906Z,1.80
2018-04-16T12:33:02.550Z,1.60
2018-04-16T12:35:32.672Z,1.50
2018-04-16T12:38:00.921Z,1.60
2018-04-16T12:40:28.398Z,1.62
2018-04-16T12:42:56.682Z,1.73
2018-04-16T12:45:24.979Z,1.87
2018-04-16T12:47:53.234Z,1.70
2018-04-16T12:50:20.770Z,1.80
2018-04-16T12:52:48.236Z,1.65
2018-04-16T12:55:15.761Z,1.83
2018-04-16T12:57:43.210Z,2.00
2018-04-16T13:00:10.691Z,1.70
2018-04-16T13:02:38.181Z,1.70
2018-04-16T13:05:06.437Z,1.90
2018-04-16T13:07:49.198Z,2.25
2018-04-16T13:10:16.779Z,2.05
2018-04-16T13:12:44.243Z,1.77
2018-04-16T13:15:12.466Z,1.60
2018-04-16T13:17:39.956Z,1.87
2018-04-16T13:20:07.418Z,1.85
2018-04-16T13:22:34.910Z,1.80
2018-04-16T13:25:02.434Z,1.65
2018-04-16T13:27:29.966Z,2.10
2018-04-16T13:29:58.203Z,1.70
2018-04-16T13:32:25.702Z,1.60
2018-04-16T13:34:53.154Z,1.42
2018-04-16T13:37:20.652Z,1.60
2018-04-16T13:39:48.136Z,2.30
2018-04-16T13:42:16.438Z,1.30
2018-04-16T13:44:43.973Z,1.40
2018-04-16T13:47:11.444Z,1.40
2018-04-16T13:49:38.910Z,1.23
2018-04-16T13:52:06.378Z,1.58
2018-04-16T13:54:33.865Z,1.40
2018-04-16T13:57:01.355Z,1.27
2018-04-16T13:59:28.846Z,1.30
2018-04-16T14:01:56.451Z,1.15
2018-04-16T14:04:23.980Z,1.20
2018-04-16T14:06:51.578Z,1.25
2018-04-16T14:09:27.748Z,1.33
2018-04-16T14:11:55.247Z,1.00
2018-04-16T14:14:22.726Z,1.02
2018-04-16T14:16:51.122Z,1.20
2018-04-16T14:19:19.381Z,1.95
2018-04-16T14:21:46.845Z,1.15
2018-04-16T14:24:14.345Z,1.40
2018-04-16T14:26:41.871Z,1.25
2018-04-16T14:29:09.366Z,1.45
2018-04-16T14:31:36.853Z,1.40
2018-04-16T14:34:05.079Z,1.20
2018-04-16T14:36:32.594Z,1.25
2018-04-16T14:39:05.856Z,1.45
2018-04-16T14:41:33.525Z,1.27
2018-04-16T14:44:01.910Z,1.50
2018-04-16T14:46:32.922Z,1.48
2018-04-16T14:49:04.296Z,1.33
2018-04-16T14:51:31.870Z,1.23
2018-04-16T14:59:48.007Z,20.88
2018-04-16T15:02:15.715Z,2.20
2018-04-16T15:04:43.170Z,1.95
2018-04-16T15:07:10.813Z,1.90
2018-04-16T15:09:38.343Z,1.30
2018-04-16T15:12:32.071Z,1.50
2018-04-16T15:14:59.836Z,1.70
2018-04-16T15:17:35.866Z,1.27
2018-04-16T15:20:04.216Z,1.45
2018-04-16T15:22:31.780Z,1.62
2018-04-16T15:24:59.377Z,1.40
2018-04-16T15:27:27.610Z,1.10
2018-04-16T15:30:04.245Z,0.80
2018-04-16T15:32:31.831Z,1.05
2018-04-16T15:35:00.199Z,1.12
2018-04-16T15:37:30.863Z,1.20
2018-04-16T15:40:01.812Z,1.17
2018-04-16T15:42:30.406Z,0.95
2018-04-16T15:45:00.312Z,1.10
2018-04-16T15:50:25.073Z,1.12
2018-04-16T15:52:53.353Z,1.03
2018-04-16T15:55:20.822Z,1.73
2018-04-16T15:58:04.915Z,1.80
2018-04-16T16:00:32.535Z,2.00
2018-04-16T16:03:03.631Z,3.03
2018-04-16T16:05:32.929Z,2.75
2018-04-16T16:11:01.818Z,1.83
2018-04-16T16:13:33.090Z,1.87
2018-04-16T16:16:02.717Z,1.70
2018-04-16T16:21:37.269Z,1.80
2018-04-16T16:24:04.882Z,1.67
2018-04-16T16:26:32.844Z,1.70
2018-04-16T16:29:02.654Z,1.50
2018-04-16T16:31:33.783Z,1.58
2018-04-16T16:34:02.512Z,1.60
2018-04-16T16:36:34.037Z,1.73
2018-04-16T18:21:32.848Z,1.90
2018-04-16T18:24:02.144Z,2.35
2018-04-16T18:26:35.227Z,1.90
2018-04-16T18:32:02.792Z,1.90
2018-04-16T18:34:31.113Z,2.00
2018-04-16T18:36:59.383Z,1.90
2018-04-16T18:39:32.369Z,1.90
2018-04-16T18:41:59.875Z,2.00
2018-04-16T18:44:27.687Z,2.00
2018-04-16T18:49:50.376Z,1.90
2018-04-16T18:52:30.475Z,2.08
2018-04-16T18:54:58.139Z,2.00
2018-04-16T18:57:26.216Z,2.20
2018-04-16T19:00:04.788Z,2.30
2018-04-16T19:02:33.064Z,2.15
2018-04-16T19:05:04.342Z,2.30
2018-04-16T19:07:32.018Z,2.30
2018-04-16T19:13:07.264Z,2.40
2018-04-16T19:15:34.823Z,2.50
2018-04-16T19:18:02.298Z,2.37
2018-04-16T19:20:35.370Z,2.40
2018-04-16T19:23:02.974Z,2.47
2018-04-16T19:25:30.479Z,2.65
2018-04-16T19:28:04.634Z,2.58
2018-04-16T19:30:32.100Z,2.40
2018-04-16T19:33:05.469Z,2.55
2018-04-16T19:35:32.991Z,2.90
2018-04-16T19:38:00.581Z,2.30
2018-04-16T19:40:28.318Z,2.45
2018-04-16T19:42:55.823Z,2.90
2018-04-16T19:45:25.412Z,3.40
2018-04-16T19:47:56.478Z,3.37
2018-04-16T19:50:24.812Z,3.25
2018-04-16T19:52:52.319Z,3.40
2018-04-16T19:55:39.921Z,3.28
2018-04-16T20:01:04.232Z,3.50
2018-04-16T20:03:37.371Z,4.75
2018-04-16T20:06:05.047Z,4.72
2018-04-16T20:08:32.845Z,4.90
2018-04-16T20:16:43.335Z,4.90
2018-04-16T20:22:19.606Z,4.65
2018-04-16T20:24:47.128Z,5.10
2018-04-16T20:27:14.678Z,4.45
2018-04-16T20:29:42.148Z,5.00
2018-04-16T20:32:32.313Z,5.32
2018-04-16T20:35:01.963Z,4.75
2018-04-16T20:37:29.472Z,4.87
2018-04-16T20:39:56.946Z,5.07
2018-04-16T20:42:24.669Z,4.95
2018-04-16T20:44:58.205Z,5.30
2018-04-16T20:47:25.745Z,4.75
2018-04-16T20:49:53.264Z,5.50
2018-04-16T20:52:20.752Z,5.78
2018-04-16T20:54:48.971Z,5.87
2018-04-16T20:57:16.451Z,5.83
2018-04-16T20:59:44.990Z,5.50
2018-04-16T21:02:12.530Z,5.20
2018-04-16T21:04:40.021Z,5.32
2018-04-16T21:07:07.496Z,5.20
2018-04-16T21:09:34.963Z,4.90
2018-04-16T21:12:02.467Z,5.10
2018-04-16T21:14:29.959Z,4.78
2018-04-16T21:16:57.429Z,4.37
2018-04-16T21:19:24.904Z,4.70
2018-04-16T21:21:52.464Z,4.47
2018-04-16T21:24:19.950Z,4.45
2018-04-16T21:26:47.543Z,4.07
2018-04-16T21:29:15.034Z,4.32
2018-04-16T21:31:42.521Z,4.20
2018-04-16T21:34:11.027Z,3.95
2018-04-16T21:36:38.913Z,4.40
2018-04-16T21:39:06.386Z,4.15
2018-04-16T21:41:39.641Z,4.40
2018-04-16T21:44:07.135Z,4.18
2018-04-16T21:46:35.443Z,4.47
2018-04-16T21:49:02.911Z,4.30
2018-04-16T21:51:31.479Z,4.60
2018-04-16T21:53:59.786Z,5.18
2018-04-16T21:56:28.193Z,4.87
2018-04-16T21:58:59.658Z,5.22
2018-04-16T22:01:45.726Z,5.82
2018-04-16T22:04:13.244Z,5.87
2018-04-16T22:06:43.866Z,6.00
2018-04-16T22:09:11.410Z,5.80
2018-04-16T22:11:39.663Z,5.93
2018-04-16T22:14:07.243Z,6.00
2018-04-16T22:16:34.701Z,6.62
2018-04-16T22:19:02.329Z,6.43
2018-04-16T22:21:29.833Z,6.53
2018-04-16T22:23:57.359Z,6.60
2018-04-16T22:26:25.607Z,6.12
2018-04-16T22:28:53.112Z,6.28
2018-04-16T22:31:21.352Z,5.70
2018-04-16T22:33:48.936Z,6.20
2018-04-16T22:36:21.880Z,5.97
2018-04-16T22:38:50.141Z,6.03
2018-04-16T22:41:17.611Z,5.60
2018-04-16T22:43:45.222Z,4.82
2018-04-16T22:46:12.760Z,5.17
2018-04-16T22:48:40.236Z,5.18
2018-04-16T22:51:08.472Z,5.82
2018-04-16T22:53:47.570Z,5.85
2018-04-16T22:56:15.106Z,6.40
2018-04-16T22:58:42.604Z,5.90
2018-04-16T23:01:10.860Z,6.32
2018-04-16T23:03:38.396Z,6.53
2018-04-16T23:06:05.971Z,6.72
2018-04-16T23:08:33.619Z,6.40
2018-04-16T23:11:01.874Z,6.47
2018-04-16T23:13:29.338Z,6.85
2018-04-16T23:15:56.807Z,6.90
2018-04-16T23:18:24.303Z,6.90
2018-04-16T23:20:51.802Z,7.05
2018-04-16T23:23:19.348Z,6.32
2018-04-16T23:25:47.663Z,6.55
2018-04-16T23:28:15.151Z,6.30
2018-04-16T23:30:42.689Z,5.85
2018-04-16T23:33:10.940Z,5.20
2018-04-16T23:35:38.481Z,5.20
2018-04-16T23:38:05.960Z,5.37
2018-04-16T23:40:33.456Z,5.47
2018-04-16T23:43:01.023Z,5.40
2018-04-16T23:45:28.564Z,5.40
2018-04-16T23:47:56.812Z,5.72
2018-04-16T23:50:38.761Z,5.70
2018-04-16T23:53:07.313Z,5.40
2018-04-16T23:55:36.436Z,5.50
2018-04-16T23:58:04.690Z,5.37
